Time;durP1;ratioP1;P1;durP2;ratioP2;P2;SDS_P1;SDS_P2;PMS_P1;PMS_P2;Temp;Humidity;BMP_temperature;BMP_pressure;BME280_temperature;BME280_humidity;BME280_pressure;Samples;Min_cycle;Max_cycle;Signal;HPM_P1;HPM_P2
2022/01/15 00:02:17;;;;;;;;;74.67;56.67;;;;;7.41;62.28;102644.88;5056688;28;45338;-77
2022/01/15 00:04:42;;;;;;;;;76.67;59.33;;;;;7.41;62.38;102650.22;5057620;28;46008;-77
2022/01/15 00:07:08;;;;;;;;;78.67;59.00;;;;;7.42;62.12;102652.00;5070600;28;45277;-77
2022/01/15 00:09:33;;;;;;;;;81.67;61.67;;;;;7.36;62.07;102636.91;5057791;28;45346;-77
2022/01/15 00:11:59;;;;;;;;;82.33;60.00;;;;;7.40;62.47;102648.47;5057075;28;45359;-76
2022/01/15 00:14:29;;;;;;;;;76.67;57.00;;;;;7.33;62.16;102633.34;5057102;28;46551;-79
2022/01/15 00:17:05;;;;;;;;;73.67;57.00;;;;;7.32;62.21;102627.13;5056131;28;45400;-77
2022/01/15 00:19:41;;;;;;;;;72.67;54.00;;;;;7.08;62.05;102592.50;5056958;28;45595;-77
2022/01/15 00:22:11;;;;;;;;;72.33;56.00;;;;;7.37;62.01;102637.78;5056460;28;45621;-78
2022/01/15 00:24:37;;;;;;;;;71.67;56.33;;;;;7.19;62.48;102607.59;5057780;28;46350;-77
2022/01/15 00:27:04;;;;;;;;;77.00;55.33;;;;;7.30;62.32;102625.38;5057622;28;45331;-78
2022/01/15 00:29:30;;;;;;;;;79.00;61.00;;;;;7.24;62.27;102620.91;5070542;28;45480;-78
2022/01/15 05:33:33;;;;;;;;;86.67;64.00;;;;;5.84;65.29;102420.28;5035383;28;45502;-75
2022/01/15 05:35:59;;;;;;;;;83.67;62.00;;;;;5.60;65.47;102391.91;5035525;28;46006;-78
2022/01/15 05:38:24;;;;;;;;;82.00;62.00;;;;;5.64;66.15;102413.19;5036059;28;45269;-78
2022/01/15 05:40:50;;;;;;;;;80.67;63.00;;;;;5.54;65.63;102390.09;5036067;28;46114;-75
2022/01/15 05:43:15;;;;;;;;;82.00;61.33;;;;;5.54;65.94;102400.75;5035420;28;45264;-76
2022/01/15 05:45:40;;;;;;;;;87.33;66.00;;;;;5.56;66.04;102409.63;5048520;28;45347;-77
2022/01/15 05:48:06;;;;;;;;;83.67;63.33;;;;;5.56;66.20;102419.38;5017560;28;46187;-77
2022/01/15 05:50:31;;;;;;;;;84.33;64.33;;;;;5.42;65.88;102391.88;5038883;28;45465;-76
2022/01/15 05:52:58;;;;;;;;;86.67;65.00;;;;;5.51;66.25;102415.84;5038671;28;45369;-77
2022/01/15 05:55:24;;;;;;;;;79.00;62.33;;;;;5.44;66.32;102422.91;5035575;28;45490;-77
2022/01/15 05:57:49;;;;;;;;;79.33;60.33;;;;;5.41;66.08;102430.00;5035827;28;45423;-78
2022/01/15 06:00:15;;;;;;;;;85.67;63.00;;;;;5.28;66.59;102415.75;5018061;28;47078;-77
2022/01/15 06:02:43;;;;;;;;;82.00;62.00;;;;;5.31;67.12;102419.34;5036263;28;45312;-77
2022/01/15 06:05:09;;;;;;;;;82.33;60.33;;;;;5.33;66.82;102417.56;5034057;28;45435;-76
2022/01/15 06:07:35;;;;;;;;;81.00;59.67;;;;;5.42;66.85;102424.69;5017664;28;46511;-77
2022/01/15 06:10:00;;;;;;;;;82.67;63.67;;;;;5.38;66.16;102416.69;5033886;28;46055;-76
2022/01/15 06:12:30;;;;;;;;;83.00;60.00;;;;;5.44;66.62;102427.34;5035631;28;45433;-77
2022/01/15 06:14:56;;;;;;;;;75.00;60.00;;;;;5.45;66.30;102424.66;5035652;28;45442;-76
2022/01/15 06:17:22;;;;;;;;;83.00;61.67;;;;;5.42;66.22;102427.34;5040114;28;45343;-79
2022/01/15 06:19:47;;;;;;;;;76.33;60.67;;;;;5.35;66.26;102425.56;5021300;28;46083;-78
2022/01/15 06:22:12;;;;;;;;;71.67;56.33;;;;;5.31;66.31;102419.34;5039139;28;45466;-78
2022/01/15 06:24:38;;;;;;;;;72.00;53.33;;;;;5.35;66.10;102417.59;5039408;28;45343;-78
2022/01/15 06:27:04;;;;;;;;;71.67;57.33;;;;;5.33;66.67;102414.91;5021224;28;46664;-76
2022/01/15 06:29:29;;;;;;;;;78.67;59.33;;;;;5.28;66.17;102407.78;5042841;28;45240;-75
2022/01/15 06:31:54;;;;;;;;;81.67;60.33;;;;;5.31;66.23;102418.44;5049746;28;45308;-76
2022/01/15 06:34:20;;;;;;;;;80.33;57.00;;;;;5.28;66.73;102399.81;5058213;28;45682;-77
2022/01/15 06:36:46;;;;;;;;;74.00;55.00;;;;;5.39;66.65;102413.13;5059426;28;45367;-76
2022/01/15 06:39:12;;;;;;;;;80.33;58.67;;;;;5.30;66.41;102396.28;5059028;28;46205;-77
2022/01/15 06:41:37;;;;;;;;;80.33;54.00;;;;;5.33;66.25;102412.25;5059112;28;45404;-76
2022/01/15 06:44:02;;;;;;;;;82.00;57.33;;;;;5.37;66.79;102414.91;5059521;28;45388;-78
2022/01/15 06:46:28;;;;;;;;;72.67;53.33;;;;;5.40;66.80;102420.22;5059955;28;45972;-78
2022/01/15 06:48:53;;;;;;;;;68.67;55.67;;;;;5.39;66.72;102416.69;5059423;28;45315;-77
2022/01/15 06:51:18;;;;;;;;;67.33;50.00;;;;;5.31;66.08;102403.38;5059291;28;45362;-77
2022/01/15 06:53:44;;;;;;;;;75.00;55.33;;;;;5.26;66.72;102388.31;5041361;28;45426;-77
2022/01/15 06:56:09;;;;;;;;;72.67;55.33;;;;;5.29;66.16;102378.53;5058717;28;45401;-77
2022/01/15 06:58:34;;;;;;;;;74.00;54.33;;;;;5.47;66.99;102398.97;5058428;28;45309;-77
2022/01/15 07:01:00;;;;;;;;;70.33;54.00;;;;;5.44;67.07;102382.13;5058438;28;45278;-78
2022/01/15 07:03:25;;;;;;;;;69.33;55.33;;;;;5.52;66.81;102381.25;5058473;28;45345;-76
2022/01/15 07:05:50;;;;;;;;;71.33;56.33;;;;;5.65;66.55;102383.03;5055850;28;45407;-77
2022/01/15 07:08:16;;;;;;;;;73.67;55.33;;;;;5.63;66.35;102368.81;5060358;28;46129;-77
2022/01/15 07:10:43;;;;;;;;;67.00;55.00;;;;;5.51;65.67;102334.25;5064132;28;45374;-75
2022/01/15 07:13:09;;;;;;;;;68.33;52.33;;;;;5.69;64.99;102371.50;5059232;28;45289;-76
2022/01/15 07:15:34;;;;;;;;;68.67;54.33;;;;;5.58;65.20;102359.09;5059270;28;45484;-77
2022/01/15 07:18:00;;;;;;;;;55.00;42.67;;;;;5.70;65.33;102383.00;5058704;28;45454;-76
2022/01/15 07:20:26;;;;;;;;;67.00;52.00;;;;;5.69;65.12;102378.59;5057580;28;45433;-77
2022/01/15 07:22:52;;;;;;;;;74.00;56.33;;;;;5.62;64.94;102375.03;5059003;28;45437;-76
2022/01/15 07:25:18;;;;;;;;;79.00;59.33;;;;;5.54;66.06;102379.47;5058650;28;45505;-77
2022/01/15 07:27:44;;;;;;;;;76.33;57.00;;;;;5.45;66.22;102387.44;5060395;28;46299;-77
2022/01/15 07:30:11;;;;;;;;;76.67;58.00;;;;;5.39;66.14;102384.78;5066834;28;45381;-77
2022/01/15 07:32:37;;;;;;;;;80.00;59.67;;;;;5.29;65.90;102373.22;5061619;28;45496;-76
2022/01/15 07:35:03;;;;;;;;;74.00;59.33;;;;;5.18;66.70;102377.66;5056208;28;45333;-78
2022/01/15 07:37:30;;;;;;;;;73.33;54.33;;;;;4.99;66.80;102361.66;5040032;28;45365;-78
2022/01/15 07:39:55;;;;;;;;;68.67;52.00;;;;;5.00;67.15;102364.31;5037486;28;45311;-75
2022/01/15 07:42:21;;;;;;;;;78.33;56.33;;;;;5.13;66.91;102373.19;5040596;28;45538;-73
2022/01/15 07:44:46;;;;;;;;;84.67;59.67;;;;;5.14;66.83;102381.19;5043981;28;46887;-71
2022/01/15 07:47:12;;;;;;;;;80.33;60.67;;;;;5.06;67.18;102348.38;5037971;28;46263;-76
2022/01/15 07:49:38;;;;;;;;;80.00;60.33;;;;;5.19;67.01;102374.09;5038113;28;45462;-74
2022/01/15 07:52:03;;;;;;;;;74.33;55.00;;;;;5.12;66.87;102366.09;5035652;28;45493;-75
2022/01/15 07:54:29;;;;;;;;;73.33;57.00;;;;;5.19;67.46;102384.72;5036033;28;45435;-72
2022/01/15 07:56:55;;;;;;;;;75.00;59.00;;;;;5.09;67.27;102364.34;5035873;28;45408;-76
2022/01/15 07:59:23;;;;;;;;;79.67;59.33;;;;;5.25;67.09;102382.09;5035816;28;45315;-72
2022/01/15 08:01:48;;;;;;;;;76.67;56.67;;;;;5.30;66.55;102380.31;5036001;28;45400;-78
2022/01/15 08:04:14;;;;;;;;;71.67;58.00;;;;;5.24;66.99;102372.34;5034435;28;46485;-77
2022/01/15 08:06:41;;;;;;;;;69.67;54.00;;;;;5.23;66.99;102369.69;5035594;28;45381;-77
2022/01/15 08:09:07;;;;;;;;;72.67;55.00;;;;;5.17;67.43;102354.59;5036315;28;45595;-78
2022/01/15 08:11:32;;;;;;;;;68.67;53.00;;;;;5.30;66.97;102371.47;5036310;28;45509;-77
2022/01/15 08:13:57;;;;;;;;;74.00;56.67;;;;;5.24;66.77;102347.53;5037435;28;45549;-78
2022/01/15 08:16:23;;;;;;;;;71.00;58.33;;;;;5.33;66.78;102372.38;5035276;28;46527;-73
2022/01/15 08:18:48;;;;;;;;;78.00;56.00;;;;;5.34;67.15;102365.28;5035953;28;45323;-73
2022/01/15 08:21:14;;;;;;;;;78.67;59.00;;;;;5.39;66.46;102366.16;5036798;28;45376;-72
2022/01/15 08:23:39;;;;;;;;;72.33;58.33;;;;;5.25;66.64;102349.31;5035297;28;45659;-71
2022/01/15 08:26:04;;;;;;;;;77.67;58.00;;;;;5.23;67.01;102351.94;5035874;28;46009;-73
2022/01/15 08:28:30;;;;;;;;;73.33;55.67;;;;;5.27;66.96;102359.03;5035765;28;45261;-76
2022/01/15 08:30:55;;;;;;;;;78.67;56.33;;;;;5.31;66.70;102366.16;5017494;28;45269;-73
2022/01/15 08:33:21;;;;;;;;;75.33;55.00;;;;;5.31;66.93;102362.59;5052991;28;45467;-75
2022/01/15 08:35:46;;;;;;;;;80.00;56.00;;;;;5.24;66.93;102351.06;5056831;28;45531;-73
2022/01/15 08:38:12;;;;;;;;;78.00;58.33;;;;;5.26;66.55;102356.41;5038249;28;45332;-77
2022/01/15 08:40:38;;;;;;;;;73.33;59.67;;;;;5.41;66.31;102366.16;5055353;28;45380;-74
2022/01/15 08:43:04;;;;;;;;;85.00;61.67;;;;;5.32;66.40;102353.75;5054948;28;45505;-75
2022/01/15 08:45:30;;;;;;;;;79.33;62.67;;;;;5.32;66.87;102361.72;5054960;28;45401;-75
2022/01/15 08:47:56;;;;;;;;;84.33;60.00;;;;;5.39;66.62;102367.94;5055508;28;45470;-73
2022/01/15 08:50:22;;;;;;;;;75.67;59.33;;;;;5.43;66.02;102370.59;5055036;28;45366;-74
2022/01/15 08:52:48;;;;;;;;;80.33;62.67;;;;;5.41;66.21;102369.72;5055272;28;45537;-75
2022/01/15 08:55:14;;;;;;;;;74.00;58.33;;;;;5.40;66.13;102375.03;5054951;28;45333;-75
2022/01/15 08:57:40;;;;;;;;;76.00;57.00;;;;;5.08;66.58;102346.63;5055561;28;45437;-76
2022/01/15 09:00:09;;;;;;;;;81.00;61.00;;;;;5.24;66.68;102377.66;5055117;28;45577;-70
2022/01/15 09:02:35;;;;;;;;;76.67;57.00;;;;;5.12;66.77;102367.00;5055247;28;45560;-71
2022/01/15 09:05:00;;;;;;;;;83.33;61.33;;;;;5.14;67.09;102374.97;5053165;28;48592;-74
2022/01/15 09:07:26;;;;;;;;;82.67;61.00;;;;;5.18;67.01;102377.66;5061608;28;45454;-71
2022/01/15 09:09:51;;;;;;;;;80.67;59.33;;;;;5.28;66.87;102378.53;5040239;28;45596;-73
2022/01/15 09:12:17;;;;;;;;;73.33;58.33;;;;;5.35;66.96;102369.72;5054925;28;45478;-71
2022/01/15 09:14:43;;;;;;;;;76.33;54.33;;;;;5.35;66.24;102364.41;5055381;28;45474;-71
2022/01/15 09:17:09;;;;;;;;;79.00;57.33;;;;;5.50;66.08;102385.69;5058931;28;45512;-73
2022/01/15 09:19:34;;;;;;;;;73.67;58.33;;;;;5.50;66.16;102371.50;5054351;28;45526;-72
2022/01/15 09:22:01;;;;;;;;;83.33;62.00;;;;;5.53;65.95;102376.84;5053875;28;45406;-73
2022/01/15 09:24:26;;;;;;;;;82.67;59.00;;;;;5.53;66.11;102375.03;5053505;28;45972;-73
2022/01/15 09:32:07;;;;;;;;;83.33;61.00;;;;;5.69;66.12;102370.63;5055533;28;45402;-71
2022/01/15 09:34:34;;;;;;;;;80.00;58.00;;;;;5.74;65.39;102374.16;5037986;28;46270;-74
2022/01/15 09:37:01;;;;;;;;;80.00;59.67;;;;;5.84;65.33;102389.25;5053940;28;45335;-71
2022/01/15 09:39:27;;;;;;;;;82.33;62.00;;;;;5.91;65.34;102375.06;5054896;28;45315;-72
2022/01/15 09:41:55;;;;;;;;;75.67;59.67;;;;;5.88;65.31;102358.22;5036614;28;45467;-71
2022/01/15 09:44:22;;;;;;;;;78.67;60.33;;;;;6.08;65.16;102378.59;5054959;28;46235;-70
2022/01/15 09:46:47;;;;;;;;;80.33;60.00;;;;;6.15;64.36;102374.16;5054353;28;45422;-73
2022/01/15 09:49:18;;;;;;;;;80.00;60.67;;;;;6.20;64.97;102379.50;5053826;28;45483;-72
2022/01/15 09:51:44;;;;;;;;;81.00;60.67;;;;;6.27;64.81;102376.81;5057415;28;45563;-72
2022/01/15 09:54:15;;;;;;;;;77.33;60.33;;;;;6.24;64.32;102346.63;5058069;28;45420;-72
2022/01/15 09:56:41;;;;;;;;;81.33;60.00;;;;;6.44;64.29;102364.34;5057665;28;45331;-73
2022/01/15 09:59:06;;;;;;;;;76.00;59.67;;;;;6.51;63.93;102367.84;5039960;28;45263;-71
2022/01/15 10:01:32;;;;;;;;;87.00;63.67;;;;;6.56;63.90;102360.72;5039638;28;45576;-72
2022/01/15 10:03:59;;;;;;;;;79.33;60.00;;;;;6.55;63.62;102358.94;5057782;28;46261;-76
2022/01/15 10:06:26;;;;;;;;;81.67;62.67;;;;;6.62;63.27;102360.72;5056719;28;45493;-73
2022/01/15 10:09:08;;;;;;;;;81.67;62.33;;;;;6.67;63.50;102363.34;5057517;28;45448;-72
2022/01/15 10:11:45;;;;;;;;;72.33;57.67;;;;;6.59;63.59;102343.84;5058137;28;45483;-74
2022/01/15 10:14:30;;;;;;;;;81.67;62.33;;;;;6.77;63.22;102362.44;5039403;28;47529;-74
2022/01/15 10:16:57;;;;;;;;;82.33;62.67;;;;;6.83;63.40;102362.38;5057748;28;45197;-73
2022/01/15 10:19:29;;;;;;;;;84.67;65.00;;;;;6.79;62.88;102361.53;5058013;28;45548;-72
2022/01/15 10:22:22;;;;;;;;;71.33;59.33;;;;;6.81;63.31;102361.50;5039051;28;46046;-73
2022/01/15 10:24:59;;;;;;;;;82.00;61.33;;;;;6.86;63.36;102366.84;5032992;28;46771;-73
2022/01/15 10:27:26;;;;;;;;;86.33;64.67;;;;;6.91;62.89;102373.00;5056361;28;45506;-72
2022/01/15 10:29:59;;;;;;;;;77.67;62.33;;;;;6.90;63.02;102347.25;5056529;28;45410;-74
2022/01/15 10:32:27;;;;;;;;;77.00;62.00;;;;;6.95;63.16;102345.47;5057147;28;45320;-71
2022/01/15 10:34:52;;;;;;;;;77.33;61.00;;;;;6.98;62.57;102340.09;5057110;28;46098;-74
2022/01/15 10:37:22;;;;;;;;;85.67;64.33;;;;;7.03;62.64;102335.63;5055535;28;45298;-73
2022/01/15 10:39:55;;;;;;;;;76.00;59.00;;;;;7.06;62.73;102327.63;5058076;28;45216;-78
2022/01/15 10:42:23;;;;;;;;;79.67;62.33;;;;;7.21;62.57;102339.09;5057192;28;45529;-73
2022/01/15 10:44:50;;;;;;;;;81.33;63.33;;;;;7.30;62.60;102329.25;5057508;28;45462;-74
2022/01/15 10:47:19;;;;;;;;;85.00;66.00;;;;;7.23;61.74;102310.59;5056805;28;45200;-75
2022/01/15 10:49:45;;;;;;;;;83.67;63.33;;;;;7.36;62.21;102318.50;5057383;28;45393;-72
2022/01/15 10:52:18;;;;;;;;;81.33;62.67;;;;;7.51;61.93;102329.94;5038285;28;45403;-75
2022/01/15 10:55:02;;;;;;;;;84.00;61.67;;;;;7.59;61.95;102320.09;5056818;28;46245;-80
2022/01/15 10:57:33;;;;;;;;;84.00;62.33;;;;;7.52;61.75;102289.03;5056760;28;45437;-75
2022/01/15 11:00:07;;;;;;;;;90.67;71.67;;;;;7.78;61.33;102307.47;5056883;28;45504;-74
2022/01/15 11:02:34;;;;;;;;;87.00;66.33;;;;;7.96;61.14;102317.97;5056318;28;46351;-75
2022/01/15 11:05:00;;;;;;;;;84.00;62.67;;;;;8.03;60.93;102320.59;5056221;28;45489;-75
2022/01/15 11:07:26;;;;;;;;;87.00;68.00;;;;;8.13;60.60;102322.25;5056522;28;45359;-73
2022/01/15 11:09:53;;;;;;;;;86.00;68.00;;;;;8.23;60.10;102315.94;5038342;28;45448;-75
2022/01/15 11:12:19;;;;;;;;;92.33;71.33;;;;;8.24;59.80;102297.22;5038617;28;45601;-80
2022/01/15 11:14:44;;;;;;;;;92.67;79.67;;;;;8.37;59.12;102314.00;5057698;28;46292;-74
2022/01/15 11:17:10;;;;;;;;;91.67;69.33;;;;;8.44;59.06;102307.69;5057114;28;45460;-76
2022/01/15 11:19:36;;;;;;;;;94.50;80.75;;;;;8.55;58.44;102299.53;5057259;28;45409;-78
2022/01/15 11:22:03;;;;;;;;;95.67;80.00;;;;;8.64;58.99;102297.63;5056641;28;45350;-75
2022/01/15 11:24:28;;;;;;;;;94.00;81.33;;;;;8.82;58.04;102306.31;5057568;28;46444;-77
2022/01/15 11:26:57;;;;;;;;;72.00;55.50;;;;;9.29;57.64;102297.56;5056683;28;45240;-73
2022/01/15 11:29:25;;;;;;;;;99.25;84.00;;;;;10.04;54.82;102276.59;5055076;28;45395;-74
2022/01/15 11:31:53;;;;;;;;;96.00;87.67;;;;;11.10;53.28;102278.81;5055376;28;46042;-74
2022/01/15 11:34:23;;;;;;;;;91.00;82.33;;;;;12.16;50.04;102268.97;5052765;28;46706;-72
2022/01/15 11:36:48;;;;;;;;;94.33;87.33;;;;;13.02;47.48;102258.25;5052983;28;45541;-73
2022/01/15 11:39:19;;;;;;;;;89.00;84.00;;;;;13.81;45.04;102263.69;5053509;28;45382;-72
2022/01/15 11:41:55;;;;;;;;;103.33;91.00;;;;;14.23;43.88;102220.81;5056096;28;45385;-73
2022/01/15 11:44:29;;;;;;;;;92.00;89.00;;;;;15.11;42.52;102254.28;5043217;28;46136;-74
2022/01/15 11:47:12;;;;;;;;;97.33;89.67;;;;;15.27;41.44;102247.28;5055374;28;46182;-75
2022/01/15 11:49:41;;;;;;;;;99.33;95.00;;;;;14.96;41.58;102246.81;5056216;28;45230;-74
2022/01/15 11:52:08;;;;;;;;;90.00;83.67;;;;;14.55;42.68;102249.28;5055303;28;45493;-74
2022/01/15 11:54:35;;;;;;;;;104.00;96.33;;;;;14.02;43.79;102246.78;5055822;28;46507;-74
2022/01/15 11:57:02;;;;;;;;;107.00;93.25;;;;;13.66;44.63;102239.09;5055403;28;45467;-74
2022/01/15 11:59:27;;;;;;;;;98.33;89.33;;;;;13.31;45.25;102235.78;5037916;28;45440;-75
2022/01/15 12:01:54;;;;;;;;;109.00;98.00;;;;;12.97;46.38;102222.53;5056144;28;45212;-76
2022/01/15 12:04:28;;;;;;;;;111.25;94.75;;;;;12.68;46.68;102223.44;5056022;28;45495;-78
2022/01/15 12:07:05;;;;;;;;;101.75;89.00;;;;;12.40;47.35;102231.47;5055837;28;45397;-80
2022/01/15 12:09:39;;;;;;;;;105.50;100.50;;;;;12.17;47.98;102228.56;5056051;28;45343;-81
2022/01/15 12:15:05;;;;;;;;;122.50;104.25;;;;;11.65;48.68;102204.94;5056301;28;46306;-78
2022/01/15 12:17:32;;;;;;;;;114.00;95.25;;;;;11.29;49.42;102185.31;5057342;28;45319;-79
2022/01/15 12:20:21;;;;;;;;;115.50;99.50;;;;;11.23;49.95;102209.59;5061040;28;44934;-75
2022/01/15 12:22:48;;;;;;;;;109.75;92.00;;;;;11.07;50.43;102200.16;5048869;28;45510;-76
2022/01/15 12:25:16;;;;;;;;;111.50;105.25;;;;;10.94;51.09;102192.44;5057631;28;46352;-73
2022/01/15 12:28:03;;;;;;;;;117.25;107.00;;;;;10.78;51.34;102188.38;5057186;28;45387;-78
2022/01/15 12:30:34;;;;;;;;;113.50;98.50;;;;;10.53;51.18;102150.50;5056251;28;45593;-83
2022/01/15 12:33:01;;;;;;;;;114.50;100.50;;;;;10.70;51.64;102189.47;5052492;28;45374;-77
2022/01/15 12:35:30;;;;;;;;;107.00;93.50;;;;;10.61;51.75;102185.19;5053464;28;46555;-79
2022/01/15 12:38:02;;;;;;;;;113.50;102.50;;;;;10.42;51.40;102198.13;5054947;28;45462;-75
2022/01/15 12:40:40;;;;;;;;;116.00;103.50;;;;;10.11;52.21;102176.44;5053294;28;45770;-74
2022/01/15 12:43:07;;;;;;;;;97.25;87.75;;;;;10.12;53.01;102186.22;5038131;28;46724;-77
2022/01/15 12:45:34;;;;;;;;;104.75;94.50;;;;;10.05;53.14;102176.53;5053913;28;46323;-76
2022/01/15 12:47:59;;;;;;;;;118.75;102.00;;;;;10.01;52.92;102168.63;5055193;28;45373;-77
2022/01/15 12:50:26;;;;;;;;;113.75;101.75;;;;;9.94;52.92;102154.47;5055216;28;45283;-75
2022/01/15 12:53:00;;;;;;;;;105.25;97.50;;;;;10.05;52.99;102176.53;5066693;28;45420;-79
2022/01/15 12:55:31;;;;;;;;;109.75;95.50;;;;;10.00;53.05;102156.13;5056782;28;46486;-76
2022/01/15 12:57:57;;;;;;;;;126.00;104.00;;;;;9.92;53.44;102134.88;5055980;28;45209;-76
2022/01/15 13:00:26;;;;;;;;;113.00;99.25;;;;;10.07;52.79;102157.75;5056527;28;45632;-77
2022/01/15 13:02:57;;;;;;;;;107.50;99.00;;;;;10.01;53.71;102145.38;5036943;28;46635;-78
2022/01/15 13:05:26;;;;;;;;;111.75;97.50;;;;;10.07;53.54;102145.25;5055143;28;45270;-72
2022/01/15 13:07:56;;;;;;;;;108.00;97.00;;;;;10.11;53.44;102138.03;5054772;28;45331;-77
2022/01/15 13:10:33;;;;;;;;;123.50;104.50;;;;;9.99;52.89;102119.53;5055847;28;45383;-77
2022/01/15 13:12:59;;;;;;;;;106.75;92.75;;;;;10.04;53.12;102120.31;5037477;28;45586;-78
2022/01/15 13:15:26;;;;;;;;;103.25;94.00;;;;;10.14;53.61;102132.59;5037692;28;47511;-72
2022/01/15 13:17:52;;;;;;;;;108.50;95.75;;;;;10.06;53.25;102110.44;5036745;28;45410;-76
2022/01/15 13:20:29;;;;;;;;;114.75;94.75;;;;;10.21;52.98;102132.44;5054650;28;45407;-72
2022/01/15 13:22:54;;;;;;;;;110.75;99.00;;;;;10.25;53.47;102127.91;5054772;28;45268;-77
2022/01/15 13:25:24;;;;;;;;;117.50;103.50;;;;;10.08;53.78;102100.59;5056283;28;45728;-76
2022/01/15 13:27:50;;;;;;;;;100.00;89.50;;;;;10.13;53.53;102110.28;5038919;28;45339;-78
2022/01/15 13:30:17;;;;;;;;;103.00;93.25;;;;;10.29;53.30;102123.38;5056629;28;45374;-72
2022/01/15 13:32:54;;;;;;;;;104.00;92.25;;;;;10.22;53.21;102107.41;5053745;28;45310;-73
2022/01/15 13:35:23;;;;;;;;;107.50;94.25;;;;;10.22;53.32;102103.84;5054175;28;45418;-75
2022/01/15 13:37:54;;;;;;;;;82.75;69.25;;;;;10.30;53.41;102119.75;5053805;28;45627;-73
2022/01/15 13:40:34;;;;;;;;;111.50;96.75;;;;;10.26;53.71;102108.25;5036231;28;45402;-73
2022/01/15 13:43:00;;;;;;;;;108.00;94.00;;;;;10.34;53.66;102106.28;5057491;28;45537;-73
2022/01/15 13:45:28;;;;;;;;;102.25;88.00;;;;;10.37;53.33;102106.22;5053594;28;45423;-73
2022/01/15 13:48:06;;;;;;;;;95.00;91.33;;;;;10.31;53.35;102081.31;5053872;28;45440;-71
2022/01/15 13:53:39;;;;;;;;;101.00;95.50;;;;;10.43;53.35;102078.38;5054024;28;45410;-71
2022/01/15 13:56:29;;;;;;;;;107.50;94.50;;;;;10.50;53.35;102091.59;5053719;28;45367;-74
2022/01/15 13:58:58;;;;;;;;;107.75;93.25;;;;;10.49;53.21;102079.09;5028717;28;45367;-71
2022/01/15 14:01:25;;;;;;;;;111.25;101.00;;;;;10.50;53.59;102066.56;5054236;28;45371;-72
2022/01/15 14:03:52;;;;;;;;;97.75;90.25;;;;;10.54;53.12;102076.31;5054355;28;45544;-72
2022/01/15 14:06:18;;;;;;;;;110.00;93.00;;;;;10.51;53.67;102060.28;5053994;28;45542;-72
2022/01/15 14:08:44;;;;;;;;;103.25;97.25;;;;;10.56;53.45;102061.94;5054339;28;45209;-71
2022/01/15 14:11:11;;;;;;;;;104.25;87.50;;;;;10.59;53.15;102066.34;5054542;28;45446;-73
2022/01/15 14:13:37;;;;;;;;;111.50;97.25;;;;;10.62;53.17;102066.28;5054677;28;45185;-71
2022/01/15 14:16:19;;;;;;;;;97.50;89.00;;;;;10.62;52.77;102058.22;5054017;28;46040;-73
2022/01/15 14:18:46;;;;;;;;;101.00;92.75;;;;;10.69;53.14;102048.22;5054290;28;45268;-72
2022/01/15 14:21:38;;;;;;;;;104.25;92.00;;;;;10.56;53.05;102029.75;5053770;28;45344;-73
2022/01/15 14:24:18;;;;;;;;;101.50;89.25;;;;;10.76;52.77;102057.88;5053291;28;45252;-71
2022/01/15 14:26:54;;;;;;;;;110.00;98.75;;;;;10.83;53.26;102036.19;5054041;28;45346;-72
2022/01/15 14:29:20;;;;;;;;;110.00;100.50;;;;;11.05;52.95;102046.38;5053764;28;45395;-76
2022/01/15 14:31:45;;;;;;;;;120.25;100.75;;;;;11.34;52.30;102054.50;5053796;28;45701;-73
2022/01/15 14:34:11;;;;;;;;;110.50;103.00;;;;;11.64;51.78;102045.56;5053478;28;45419;-72
2022/01/15 14:36:36;;;;;;;;;113.75;100.75;;;;;11.83;50.91;102027.09;5054033;28;45410;-72
2022/01/15 14:39:04;;;;;;;;;119.75;108.00;;;;;12.11;50.75;102044.13;5038792;28;45380;-72
2022/01/15 14:41:34;;;;;;;;;106.00;99.50;;;;;12.26;49.06;102037.38;5057610;28;45304;-73
2022/01/15 14:43:59;;;;;;;;;109.75;97.75;;;;;12.39;49.17;102041.44;5057084;28;45503;-74
2022/01/15 14:46:25;;;;;;;;;112.75;102.00;;;;;12.45;48.56;102037.66;5057342;28;46314;-73
2022/01/15 14:48:50;;;;;;;;;113.00;103.00;;;;;12.52;48.60;102052.66;5056960;28;45311;-73
2022/01/15 14:51:16;;;;;;;;;103.25;92.25;;;;;12.41;48.08;102046.78;5057007;28;45416;-72
2022/01/15 14:53:43;;;;;;;;;103.25;95.00;;;;;12.35;48.33;102060.41;5038658;28;46084;-72
2022/01/15 14:56:10;;;;;;;;;91.50;80.25;;;;;12.16;48.23;102054.75;5057306;28;45498;-74
2022/01/15 14:58:35;;;;;;;;;84.67;77.33;;;;;12.02;48.68;102070.41;5056929;28;45239;-74
2022/01/15 15:01:00;;;;;;;;;91.67;79.33;;;;;11.92;48.58;102068.94;5057361;28;45340;-74
2022/01/15 15:03:26;;;;;;;;;87.00;75.00;;;;;11.81;49.32;102071.97;5056647;28;45245;-72
2022/01/15 15:05:52;;;;;;;;;79.33;66.33;;;;;11.60;49.20;102057.31;5056667;28;45942;-72
2022/01/15 15:08:18;;;;;;;;;85.00;68.33;;;;;11.60;49.56;102077.91;5056554;28;45445;-73
2022/01/15 15:10:44;;;;;;;;;82.00;63.00;;;;;11.46;49.54;102080.13;5056852;28;45361;-73
2022/01/15 15:13:10;;;;;;;;;82.00;64.67;;;;;11.27;50.22;102064.53;5056583;28;45583;-74
2022/01/15 15:15:35;;;;;;;;;82.33;65.67;;;;;11.13;50.65;102068.53;5056427;28;45338;-75
2022/01/15 15:18:00;;;;;;;;;80.00;64.00;;;;;11.12;50.53;102067.63;5056133;28;45297;-73
2022/01/15 15:20:26;;;;;;;;;76.00;58.67;;;;;11.02;50.84;102065.25;5056564;28;45565;-72
2022/01/15 15:22:51;;;;;;;;;75.00;58.67;;;;;11.03;51.28;102075.06;5056274;28;45292;-74
2022/01/15 15:25:17;;;;;;;;;76.67;59.33;;;;;10.98;51.08;102072.47;5038092;28;46050;-73
2022/01/15 15:27:43;;;;;;;;;76.00;58.67;;;;;10.90;51.31;102075.38;5042949;28;45711;-74
2022/01/15 15:30:10;;;;;;;;;76.67;60.00;;;;;10.82;51.64;102081.84;5065052;28;45422;-74
2022/01/15 15:32:37;;;;;;;;;70.00;56.00;;;;;10.67;51.45;102074.19;5037889;28;45188;-73
2022/01/15 15:35:04;;;;;;;;;83.00;63.00;;;;;10.51;52.19;102065.66;5056166;28;45351;-73
2022/01/15 15:37:30;;;;;;;;;79.67;62.00;;;;;10.34;52.53;102067.84;5055949;28;45532;-73
2022/01/15 15:39:55;;;;;;;;;45.33;34.00;;;;;10.21;53.27;102076.16;5056272;28;45398;-74
2022/01/15 15:42:21;;;;;;;;;83.00;67.00;;;;;10.10;53.22;102064.81;5055695;28;45304;-73
2022/01/15 15:44:46;;;;;;;;;84.00;62.67;;;;;9.98;53.64;102069.53;5056192;28;45989;-73
2022/01/15 15:47:12;;;;;;;;;81.00;61.67;;;;;9.86;54.07;102066.25;5037762;28;45497;-73
2022/01/15 15:49:37;;;;;;;;;86.00;64.67;;;;;9.70;54.46;102072.81;5055853;28;46107;-72
2022/01/15 15:52:04;;;;;;;;;83.33;61.33;;;;;9.60;54.61;102078.41;5055805;28;45486;-73
2022/01/15 15:54:30;;;;;;;;;76.33;58.33;;;;;9.30;55.07;102054.00;5055839;28;46359;-74
2022/01/15 15:56:55;;;;;;;;;81.67;59.00;;;;;9.33;55.27;102088.75;5055937;28;45398;-73
2022/01/15 15:59:21;;;;;;;;;80.00;61.67;;;;;9.28;55.50;102079.03;5056584;28;45220;-72
2022/01/15 16:01:46;;;;;;;;;77.33;58.33;;;;;9.13;55.20;102065.94;5055813;28;45486;-73
2022/01/15 16:04:12;;;;;;;;;74.33;57.00;;;;;9.12;55.72;102081.13;5055860;28;45205;-70
2022/01/15 16:06:37;;;;;;;;;75.33;55.33;;;;;9.01;55.59;102061.72;5055499;28;47250;-74
2022/01/15 16:09:03;;;;;;;;;80.00;58.00;;;;;8.96;56.43;102063.59;5056807;28;45555;-76
2022/01/15 16:11:28;;;;;;;;;75.00;57.00;;;;;8.80;55.71;102041.59;5055621;28;45411;-77
2022/01/15 16:13:55;;;;;;;;;76.00;59.00;;;;;8.79;56.13;102054.97;5055968;28;45320;-75
2022/01/15 16:16:21;;;;;;;;;74.33;55.67;;;;;8.81;56.38;102062.09;5055556;28;45477;-72
2022/01/15 16:18:47;;;;;;;;;72.33;55.00;;;;;8.78;56.50;102059.44;5055812;28;45512;-74
2022/01/15 16:21:12;;;;;;;;;76.67;58.00;;;;;8.74;57.11;102052.41;5055118;28;45447;-72
2022/01/15 16:23:38;;;;;;;;;74.00;57.00;;;;;8.79;56.95;102073.69;5055397;28;45947;-72
2022/01/15 16:26:07;;;;;;;;;68.67;54.00;;;;;8.80;56.99;102067.44;5055012;28;45438;-74
2022/01/15 16:28:35;;;;;;;;;69.33;54.33;;;;;8.71;57.17;102068.50;5055636;28;45413;-71